Woodward, Pennsylvania
Current Conditions -  °F | °C
As of 4:15 AM on Monday 24 Nov 2014 (Local Time) from KUNV Reporting Station
Overcast Overcast  
Wind Chill: 52°   Ceiling: 800
Heat Index: 52°   Visibility: 10mi
Dew Point: 50°   Wind: 9mph
Humidity: 94%   Direction: 200°SSW
Pressure: 29.55"   Gusts: NA
Location:  40.9°N, 77.36°W
Report Text: KUNV 240915Z AUTO 20008KT 10SM OVC008 11/10 A2955 RMK AO2 T01090100
Loading
Personal Weather Stations






























Interactive Weather Map New forecast layout! Learn more

10-Day Weather Forecast

Advertisements
Track Severe Weather on mobile